Airfield :
LOGIN :

Register | Disclaimer

   EN    FR    IT 

 










Legend :    VFR   Marginal VFR   IFR   Intensive IFR   Very Intensive IFR
Visi :
Ceiling :
>= 8 km
>= 3000ft
5 to 8 km
1000 to 3000 ft
1500m to 5 km
500 to 1000 ft
800 to 1500m
200 to 500 ft
< 800m
< 200 ft
Symbols :   Thunderstorms  Fog  Heavy snow  Heavy precipitations  Wind > 20 kt
SIGMETs :     Misc.  Thunderstorms  Icing  Turbulence  Mountain Waves  Volcanic Ashes






- Airport Elevation : 170 ft
- IATA code : KRP


EKKA - Karup

CURRENT METAR :
  • 191250Z AUTO 14005KT 9999 OVC008/// 07/05 Q1006 TEMPO 4000 BR

EXPIRED METARs :
  • 191233Z AUTO 14004KT 100V160 9999 OVC009/// 07/05 Q1006 TEMPO 4000 BR BKN008
  • 191220Z 14005KT 110V170 9999 FEW008 BKN011 07/05 Q1006 TEMPO 4000 BR BKN008
  • 191150Z 14004KT 120V180 9999 FEW008 BKN012 07/05 Q1005 TEMPO 4000 BR BKN008
  • 191120Z 14006KT 9999 FEW008 BKN012 BKN026 07/05 Q1005 TEMPO 4000 BR BKN008
  • 191050Z 13006KT 100V170 9999 FEW008 BKN012 BKN028 06/05 Q1005 TEMPO 4000 BR BKN008
  • 191020Z 13005KT 090V160 9999 FEW008 BKN012 BKN028 06/05 Q1005 TEMPO 4000 BR BKN008

TAF TAF EKKA
Valid from the 19 at 12:00 until the 20 at 12:00 UTC


191123Z 1912/2012 15008KT 8000 SCT010 BKN015
TEMPO 1912/1914 4000 BR -RADZ BKN008
TEMPO 1914/1918 2500 DZRA BR BKN004
BECMG 1918/1921 24008KT
TEMPO 1921/1922 6000 BKN012
BECMG 2004/2006 19005KT



MET'MAP, your aeronautical weather chart ! - Copyright ORBIFLY December 2007 - Disclaimer

ORBIFLY MET'MAP TEAM :

Programming & Development : Alexandra Zaïnal
Concept & Development : Baudouin d'Aumeries
Co-Development & Prog : Marc-Olivier Méhu
Technical & hardware support : Manuel Goepfert

Contact : metmap@orbifly.com




SOURCES & CREDITS :

   NOAA